createdAt,value
2023-01-28T06:32:43.305Z,4.90
2023-01-28T06:35:11.310Z,5.13
2023-01-28T06:37:37.917Z,5.55
2023-01-28T06:40:04.817Z,5.88
2023-01-28T06:42:31.493Z,5.90
2023-01-28T06:44:58.048Z,5.50
2023-01-28T06:47:24.715Z,5.32
2023-01-28T06:49:51.288Z,5.45
2023-01-28T06:52:17.839Z,5.38
2023-01-28T06:54:44.457Z,5.37
2023-01-28T06:57:10.976Z,5.07
2023-01-28T06:59:37.574Z,5.38
2023-01-28T07:02:04.219Z,5.45
2023-01-28T07:04:31.792Z,6.15
2023-01-28T07:06:58.416Z,5.93
2023-01-28T07:09:24.964Z,5.57
2023-01-28T07:11:51.526Z,5.80
2023-01-28T07:14:18.155Z,29.13
2023-01-28T07:16:44.791Z,8.93
2023-01-28T07:19:11.554Z,5.30
2023-01-28T07:21:38.100Z,5.95
2023-01-28T07:24:05.463Z,5.72
2023-01-28T07:26:32.094Z,5.72
2023-01-28T07:28:58.672Z,6.03
2023-01-28T07:31:25.789Z,5.97
2023-01-28T07:33:52.408Z,6.13
2023-01-28T07:36:18.960Z,8.68
2023-01-28T07:38:45.603Z,6.07
2023-01-28T07:41:12.115Z,6.13
2023-01-28T07:43:38.766Z,6.47
2023-01-28T07:46:05.715Z,6.35
2023-01-28T07:48:32.455Z,6.45
2023-01-28T07:51:00.357Z,6.75
2023-01-28T07:53:27.385Z,6.60
2023-01-28T07:55:59.685Z,6.87
2023-01-28T07:58:26.228Z,6.63
2023-01-28T08:00:57.200Z,6.55
2023-01-28T08:03:23.749Z,6.72
2023-01-28T08:05:52.907Z,6.88
2023-01-28T08:08:19.724Z,6.00
2023-01-28T08:10:46.944Z,6.55
2023-01-28T08:13:15.445Z,6.93
2023-01-28T08:15:42.614Z,6.43
2023-01-28T08:18:13.267Z,7.03
2023-01-28T08:20:40.476Z,7.00
2023-01-28T08:23:14.943Z,6.70
2023-01-28T08:25:41.715Z,6.38
2023-01-28T08:28:09.151Z,6.43
2023-01-28T08:30:38.845Z,6.10
2023-01-28T08:33:09.844Z,6.60
2023-01-28T08:35:37.344Z,6.28
2023-01-28T08:38:05.347Z,6.00
2023-01-28T08:40:33.068Z,6.53
2023-01-28T08:42:59.717Z,6.30
2023-01-28T08:45:28.089Z,6.20
2023-01-28T08:48:02.307Z,6.25
2023-01-28T08:50:35.138Z,6.35
2023-01-28T08:53:04.217Z,6.43
2023-01-28T08:55:31.237Z,6.22
2023-01-28T08:57:58.753Z,6.23
2023-01-28T09:00:25.410Z,6.97
2023-01-28T09:02:53.600Z,6.80
2023-01-28T09:05:21.062Z,6.50
2023-01-28T09:07:49.074Z,6.85
2023-01-28T09:10:20.619Z,6.47
2023-01-28T09:12:47.783Z,7.38
2023-01-28T09:15:17.342Z,6.50
2023-01-28T09:17:44.092Z,5.72
2023-01-28T09:20:12.398Z,6.50
2023-01-28T09:22:39.321Z,7.43
2023-01-28T09:25:06.173Z,6.28
2023-01-28T09:27:32.723Z,5.38
2023-01-28T09:29:59.546Z,6.47
2023-01-28T09:32:26.107Z,5.93
2023-01-28T09:34:52.686Z,6.10
2023-01-28T09:37:20.592Z,6.22
2023-01-28T09:39:47.210Z,6.60
2023-01-28T09:42:29.099Z,5.90
2023-01-28T09:45:13.117Z,6.47
2023-01-28T09:47:58.632Z,6.80
2023-01-28T09:50:28.607Z,7.72
2023-01-28T09:53:00.474Z,7.78
2023-01-28T09:55:36.565Z,7.18
2023-01-28T09:58:07.615Z,7.47
2023-01-28T10:00:52.835Z,7.73
2023-01-28T10:03:22.651Z,7.43
2023-01-28T10:06:15.806Z,7.32
2023-01-28T10:09:18.924Z,7.47
2023-01-28T10:12:23.639Z,7.30
2023-01-28T10:15:05.664Z,7.33
2023-01-28T10:17:37.518Z,7.90
2023-01-28T10:20:33.577Z,7.38
2023-01-28T10:23:03.240Z,7.18
2023-01-28T10:25:32.309Z,7.45
2023-01-28T10:28:01.408Z,7.80
2023-01-28T10:30:31.956Z,8.32
2023-01-28T10:33:17.875Z,6.90
2023-01-28T10:35:44.467Z,7.28
2023-01-28T10:38:15.671Z,6.40
2023-01-28T10:43:54.197Z,5.97
2023-01-28T10:46:25.391Z,5.72
2023-01-28T10:49:02.307Z,5.72
2023-01-28T10:51:34.411Z,5.70
2023-01-28T10:54:01.002Z,5.83
2023-01-28T10:56:44.875Z,5.95
2023-01-28T10:59:22.429Z,5.55
2023-01-28T11:02:21.262Z,6.10
2023-01-28T11:04:47.869Z,5.68
2023-01-28T11:07:22.719Z,4.97
2023-01-28T11:09:51.608Z,5.00
2023-01-28T11:12:25.981Z,4.95
2023-01-28T11:14:53.556Z,4.40
2023-01-28T11:17:23.734Z,4.40
2023-01-28T11:19:52.933Z,4.50
2023-01-28T11:22:39.706Z,4.50
2023-01-28T11:25:34.484Z,4.53
2023-01-28T11:28:03.790Z,5.20
2023-01-28T11:30:40.599Z,5.18
2023-01-28T11:33:22.055Z,5.20
2023-01-28T11:36:04.570Z,5.55
2023-01-28T11:38:31.152Z,5.30
2023-01-28T11:40:58.809Z,4.85
2023-01-28T11:43:27.198Z,4.20
2023-01-28T11:46:20.840Z,4.47
2023-01-28T11:49:02.411Z,4.78
2023-01-28T11:51:54.638Z,5.25
2023-01-28T11:55:17.738Z,5.15
2023-01-28T11:58:03.195Z,4.72
2023-01-28T12:00:52.487Z,4.40
2023-01-28T12:03:41.081Z,4.50
2023-01-28T12:06:40.247Z,4.85
2023-01-28T12:09:20.155Z,4.75
2023-01-28T12:12:17.662Z,4.75
2023-01-28T12:14:47.078Z,4.83
2023-01-28T12:17:24.261Z,5.05
2023-01-28T12:20:10.863Z,5.30
2023-01-28T12:23:00.890Z,4.93
2023-01-28T12:25:42.738Z,5.28
2023-01-28T12:28:12.249Z,4.60
2023-01-28T12:31:05.142Z,4.80
2023-01-28T12:34:03.094Z,4.80
2023-01-28T12:36:58.965Z,4.40
2023-01-28T12:39:56.408Z,4.53
2023-01-28T12:42:45.015Z,4.37
2023-01-28T12:45:24.369Z,4.45
2023-01-28T12:48:14.578Z,4.43
2023-01-28T12:50:56.818Z,4.78
2023-01-28T12:53:29.389Z,4.57
2023-01-28T12:56:11.671Z,4.50
2023-01-28T12:59:11.589Z,4.63
2023-01-28T13:01:52.129Z,4.50
2023-01-28T13:04:27.012Z,4.40
2023-01-28T13:07:02.188Z,4.45
2023-01-28T13:09:30.313Z,4.50
2023-01-28T13:11:58.641Z,4.55
2023-01-28T13:14:41.100Z,4.80
2023-01-28T13:17:26.458Z,4.22
2023-01-28T13:19:53.103Z,4.30
2023-01-28T13:22:46.108Z,4.30
2023-01-28T13:25:25.205Z,4.40
2023-01-28T13:28:03.548Z,4.53
2023-01-28T13:30:50.081Z,5.65
2023-01-28T13:33:29.596Z,3.85
2023-01-28T13:35:57.071Z,5.33
2023-01-28T13:38:24.719Z,5.18
2023-01-28T13:41:00.913Z,4.13
2023-01-28T13:43:39.266Z,4.65
2023-01-28T13:46:07.742Z,4.63
2023-01-28T13:49:04.366Z,4.30
2023-01-28T13:51:37.548Z,4.38
2023-01-28T13:54:07.576Z,4.43
2023-01-28T13:56:58.226Z,4.63
2023-01-28T13:59:33.780Z,4.22
2023-01-28T14:02:06.147Z,4.40
2023-01-28T14:04:43.383Z,5.00
2023-01-28T14:07:32.258Z,4.82
2023-01-28T14:10:42.910Z,3.90
2023-01-28T14:13:44.382Z,4.93
2023-01-28T14:16:40.706Z,4.30
2023-01-28T14:19:13.530Z,4.20
2023-01-28T14:21:40.881Z,4.72
2023-01-28T14:24:16.883Z,4.60
2023-01-28T14:26:55.173Z,4.15
2023-01-28T14:29:39.087Z,5.18
2023-01-28T14:32:12.884Z,4.07
2023-01-28T14:34:40.815Z,4.13
2023-01-28T14:37:23.672Z,4.55
2023-01-28T14:39:58.236Z,4.57
2023-01-28T14:42:28.234Z,4.63
2023-01-28T14:45:24.005Z,4.70
2023-01-28T14:48:21.124Z,9.10
2023-01-28T14:51:19.817Z,4.78
2023-01-28T14:53:58.581Z,4.70
2023-01-28T14:57:12.256Z,4.45
2023-01-28T15:00:16.398Z,3.93
2023-01-28T15:02:44.889Z,6.10
2023-01-28T15:05:17.211Z,5.05
2023-01-28T15:07:45.601Z,4.50
2023-01-28T15:10:18.591Z,5.55
2023-01-28T15:12:51.069Z,5.40
2023-01-28T15:15:20.652Z,4.70
2023-01-28T15:17:48.255Z,5.05
2023-01-28T15:20:21.203Z,4.28
2023-01-28T15:22:48.065Z,4.50
2023-01-28T15:25:20.771Z,4.40
2023-01-28T15:27:48.109Z,4.70
2023-01-28T15:30:32.130Z,4.70
2023-01-28T15:33:06.838Z,4.90
2023-01-28T15:35:36.389Z,4.25
2023-01-28T15:38:04.076Z,4.33
2023-01-28T15:40:31.850Z,4.22
2023-01-28T15:42:58.957Z,4.60
2023-01-28T15:45:28.364Z,5.05
2023-01-28T15:48:04.762Z,5.55
2023-01-28T15:50:31.369Z,5.10
2023-01-28T15:52:58.284Z,6.30
2023-01-28T15:55:33.525Z,5.40
2023-01-28T15:58:12.327Z,5.03
2023-01-28T16:00:38.929Z,5.60
2023-01-28T16:03:09.793Z,6.60
2023-01-28T16:05:42.120Z,5.32
2023-01-28T16:08:17.817Z,5.60
2023-01-28T16:10:52.630Z,5.90
2023-01-28T16:13:25.121Z,5.95
2023-01-28T16:15:54.451Z,5.70
2023-01-28T16:18:39.066Z,9.38
2023-01-28T16:21:10.508Z,9.80
2023-01-28T16:23:39.500Z,7.35
2023-01-28T16:26:21.462Z,7.15
2023-01-28T16:28:48.126Z,8.07
2023-01-28T16:31:14.972Z,6.72
2023-01-28T16:33:41.719Z,6.47
2023-01-28T16:36:16.981Z,5.85
2023-01-28T16:38:43.569Z,5.95
2023-01-28T16:41:26.976Z,7.03
2023-01-28T16:43:53.892Z,7.03
2023-01-28T16:46:20.913Z,5.88
2023-01-28T16:48:47.528Z,6.15
2023-01-28T16:51:18.156Z,7.32
2023-01-28T16:53:46.858Z,6.53
2023-01-28T16:56:35.843Z,8.93
2023-01-28T16:59:04.888Z,6.85
2023-01-28T17:01:31.496Z,6.70
2023-01-28T17:03:58.649Z,6.50
2023-01-28T17:06:25.309Z,6.83
2023-01-28T17:08:51.909Z,15.32
2023-01-28T17:11:18.469Z,8.65
2023-01-28T17:13:45.093Z,8.23
2023-01-28T17:16:11.679Z,8.52
2023-01-28T17:18:38.221Z,7.70
2023-01-28T17:21:06.934Z,7.20
2023-01-28T17:23:33.629Z,7.25
2023-01-28T17:26:04.960Z,6.72
2023-01-28T17:28:31.766Z,7.38
2023-01-28T17:30:58.387Z,6.83
2023-01-28T17:33:25.053Z,6.63
2023-01-28T17:35:51.551Z,6.65
2023-01-28T17:38:18.325Z,6.53
2023-01-28T17:40:44.889Z,6.22
2023-01-28T17:43:11.418Z,6.83
2023-01-28T17:45:38.020Z,6.47
2023-01-28T17:48:05.000Z,6.85
2023-01-28T17:50:31.622Z,6.40
2023-01-28T17:52:58.454Z,7.43
2023-01-28T17:55:25.562Z,6.80
2023-01-28T17:57:52.350Z,7.57
2023-01-28T18:00:19.687Z,9.23
2023-01-28T18:02:49.816Z,7.50
2023-01-28T18:05:16.745Z,6.95
2023-01-28T18:07:44.380Z,7.60
2023-01-28T18:10:12.175Z,7.43
2023-01-28T18:12:38.702Z,7.13
2023-01-28T18:15:05.932Z,7.20
2023-01-28T18:17:32.546Z,6.57
2023-01-28T18:19:59.184Z,7.10
2023-01-28T18:22:25.840Z,7.47
2023-01-28T18:24:52.454Z,7.28
2023-01-28T18:27:20.807Z,7.95
2023-01-28T18:29:47.985Z,9.60
2023-01-28T18:32:14.677Z,8.27
2023-01-28T18:34:41.343Z,8.38
2023-01-28T18:37:10.094Z,8.90
2023-01-28T18:39:42.306Z,8.40
2023-01-28T18:42:10.029Z,8.93
2023-01-28T18:44:37.765Z,8.43
2023-01-28T18:47:04.331Z,8.40
2023-01-28T18:49:31.049Z,8.70
2023-01-28T18:51:57.955Z,9.38
2023-01-28T18:54:24.851Z,9.15
2023-01-28T18:56:51.507Z,7.80
2023-01-28T18:59:18.131Z,8.05
2023-01-28T19:01:44.856Z,9.40
2023-01-28T19:04:11.553Z,9.70
2023-01-28T19:06:54.987Z,9.55
2023-01-28T19:09:21.591Z,8.95
2023-01-28T19:11:48.424Z,9.07
2023-01-28T19:14:15.859Z,8.80
2023-01-28T19:16:43.550Z,9.23
2023-01-28T19:19:10.413Z,8.23
2023-01-28T19:21:37.802Z,7.40
2023-01-28T19:24:09.796Z,7.70
2023-01-28T19:26:37.623Z,7.50
2023-01-28T19:29:07.813Z,8.18
2023-01-28T19:31:34.421Z,7.80
2023-01-28T19:34:01.288Z,8.02
2023-01-28T19:36:31.323Z,7.50
2023-01-28T19:39:00.087Z,7.00
2023-01-28T19:41:28.472Z,8.05
2023-01-28T19:43:56.174Z,8.73
2023-01-28T19:46:22.805Z,8.40
2023-01-28T19:48:49.428Z,7.30
2023-01-28T19:51:16.362Z,8.50
2023-01-28T19:53:44.457Z,7.63
2023-01-28T19:56:15.825Z,7.80
2023-01-28T19:58:43.813Z,7.63
2023-01-28T20:01:13.710Z,7.60
2023-01-28T20:03:43.014Z,7.85
2023-01-28T20:06:14.838Z,7.70
2023-01-28T20:08:42.225Z,7.72
2023-01-28T20:11:15.619Z,9.15
2023-01-28T20:13:45.288Z,11.60
2023-01-28T20:16:19.279Z,10.82
2023-01-28T20:18:55.135Z,9.88
2023-01-28T20:21:22.047Z,8.93
2023-01-28T20:23:50.329Z,9.20
2023-01-28T20:26:18.173Z,8.50
2023-01-28T20:28:44.871Z,9.27
2023-01-28T20:31:11.727Z,8.35
2023-01-28T20:33:39.134Z,8.45
2023-01-28T20:36:11.696Z,9.05
2023-01-28T20:38:42.767Z,9.17
2023-01-28T20:41:11.683Z,9.07
2023-01-28T20:43:41.094Z,9.90
2023-01-28T20:46:15.967Z,10.50
2023-01-28T20:48:42.596Z,11.10
2023-01-28T20:51:15.036Z,12.73
2023-01-28T20:53:42.747Z,12.43
2023-01-28T20:56:11.193Z,11.85
2023-01-28T20:58:37.731Z,9.95
2023-01-28T21:01:05.265Z,10.15
2023-01-28T21:03:31.895Z,10.97
2023-01-28T21:05:58.641Z,10.50
2023-01-28T21:08:25.661Z,10.93
2023-01-28T21:10:52.317Z,10.20
2023-01-28T21:13:19.382Z,10.57
2023-01-28T21:15:55.066Z,14.10
2023-01-28T21:18:22.647Z,12.10
2023-01-28T21:20:49.885Z,11.93
2023-01-28T21:23:16.788Z,12.77
2023-01-28T21:25:46.591Z,13.35
2023-01-28T21:28:13.882Z,12.17
2023-01-28T21:30:40.467Z,14.65
2023-01-28T21:33:07.128Z,14.05
2023-01-28T21:35:42.260Z,15.57
2023-01-28T21:38:08.993Z,14.00
2023-01-28T21:40:35.752Z,11.93
2023-01-28T21:43:02.523Z,11.60
2023-01-28T21:45:29.594Z,14.52
2023-01-28T21:47:56.603Z,18.70
2023-01-28T21:50:23.922Z,16.40
2023-01-28T21:52:51.329Z,13.87
2023-01-28T21:55:18.494Z,17.17
2023-01-28T21:57:45.179Z,13.88
2023-01-28T22:00:13.115Z,15.73
2023-01-28T22:02:40.251Z,13.60
2023-01-28T22:05:07.574Z,15.67
2023-01-28T22:07:34.083Z,14.68
2023-01-28T22:10:00.726Z,14.00
2023-01-28T22:12:28.204Z,15.95
2023-01-28T22:14:54.884Z,18.10
2023-01-28T22:17:21.489Z,17.77
2023-01-28T22:19:48.316Z,17.60
2023-01-28T22:22:15.902Z,18.55
2023-01-28T22:24:42.636Z,18.13
2023-01-28T22:27:09.196Z,17.83
2023-01-28T22:29:35.721Z,16.30
2023-01-28T22:32:04.706Z,14.27
2023-01-28T22:34:31.615Z,15.80
2023-01-28T22:36:58.147Z,14.57
2023-01-28T22:39:24.801Z,13.07
2023-01-28T22:41:51.619Z,14.03
2023-01-28T22:44:19.935Z,15.43
2023-01-28T22:46:47.510Z,14.95
2023-01-28T22:49:15.190Z,13.77
2023-01-28T22:51:42.511Z,13.77
2023-01-28T22:54:12.013Z,14.40
2023-01-28T22:56:38.676Z,13.80
2023-01-28T22:59:05.568Z,14.02
2023-01-28T23:01:32.691Z,15.48
2023-01-28T23:03:59.432Z,15.80
2023-01-28T23:06:26.989Z,15.10
2023-01-28T23:08:54.463Z,15.55
2023-01-28T23:11:28.105Z,14.57
2023-01-28T23:14:16.129Z,15.18
2023-01-28T23:17:01.404Z,14.75
2023-01-28T23:19:46.958Z,15.67
2023-01-28T23:22:42.573Z,15.68
2023-01-28T23:25:09.679Z,14.90
2023-01-28T23:27:36.264Z,14.57
2023-01-28T23:30:03.969Z,12.43
2023-01-28T23:32:30.628Z,14.33
2023-01-28T23:34:57.251Z,14.00
2023-01-28T23:37:23.893Z,15.07
2023-01-28T23:39:50.429Z,14.98
2023-01-28T23:42:20.812Z,13.27
2023-01-28T23:44:48.630Z,13.27
2023-01-28T23:47:15.604Z,13.23
2023-01-28T23:49:42.153Z,15.80
2023-01-28T23:52:08.897Z,16.73
2023-01-28T23:54:35.908Z,13.88
2023-01-28T23:57:02.991Z,14.07
2023-01-28T23:59:29.556Z,13.45
